• Join FlightAware (Why Join?)
  • Login
  • US Flag 
02:07AM EDT


 

Airport Tracker/Info


-or-


 

Live Flight TrackerFlight Track Log ✈ N614MM ✈ 15-Jun-2014 ✈ KOPF - KTPF

Flight Track Log - Related Links

Times and Time Zones

All times are in EDT time to prevent confusion due to time zone crossing. See the N614MM flight status page for this flight to view local times or setup timezone preferences in your user account.

Time Position Orientation Groundspeed Altitude Reporting Facility
EDT Latitude Longitude Course Direction KTS MPH feet Rate Location/Type
01:29PM 25.9125 -80.2669 82° East 100 115 300  Level Miami Center
01:31PM 25.9167 -80.2325 82° East 107 123 1,200 720 Climbing Miami Center
01:31PM 25.9181 -80.2297 61° Northeast 100 115 1,300 540 Climbing Miami Center
01:32PM 25.9211 -80.1981 84° East 107 123 1,800 540 Climbing Miami Center
01:32PM 25.9242 -80.1900 67° East 106 122 1,900 480 Climbing Miami Center
01:33PM 25.9508 -80.1889 North 131 151 2,300 540 Climbing Miami Center
01:33PM 25.9589 -80.1892 358° North 124 143 2,500 540 Climbing Miami Center
01:34PM 25.9767 -80.2117 311° West 133 153 2,900 480 Climbing Miami Center
01:34PM 25.9797 -80.2189 295° West 133 153 3,000 540 Climbing Miami Center
01:35PM 25.9869 -80.2494 285° West 125 144 3,500 540 Climbing Miami Center
01:35PM 25.9889 -80.2567 287° West 130 150 3,600 420 Climbing Miami Center
01:36PM 26.0022 -80.2914 293° West 127 146 4,100 600 Climbing Miami Center
01:37PM 26.0075 -80.3228 281° West 126 145 4,700 720 Climbing Miami Center
01:37PM 26.0058 -80.3372 263° West 127 146 4,900 480 Climbing Miami Center
01:38PM 26.0028 -80.3642 263° West 126 145 5,200 480 Climbing Miami Center
01:38PM 26.0031 -80.3753 272° West 126 145 5,400 480 Climbing Miami Center
01:39PM 26.0003 -80.4036 264° West 129 148 5,700 360 Climbing Miami Center
01:39PM 25.9994 -80.4156 266° West 128 147 5,800 360 Climbing Miami Center
01:40PM 25.9975 -80.4450 266° West 131 151 6,100 420 Climbing Miami Center
01:40PM 25.9967 -80.4558 265° West 129 148 6,300 540 Climbing Miami Center
01:41PM 25.9947 -80.4889 266° West 130 150 6,700 360 Climbing Miami Center
01:41PM 25.9944 -80.4950 267° West 129 148 6,700 420 Level Miami Center
01:42PM 25.9922 -80.5258 265° West 129 148 7,100 540 Climbing Miami Center
01:42PM 25.9897 -80.5411 260° West 128 147 7,300 420 Climbing Miami Center
01:43PM 25.9875 -80.5694 265° West 123 142 7,600 360 Climbing Miami Center
01:43PM 25.9869 -80.5786 266° West 125 144 7,700 360 Climbing Miami Center
01:44PM 26.0003 -80.5983 307° West 119 137 8,000 240 Climbing Miami Center
01:44PM 26.0092 -80.6050 326° Northwest 118 136 8,000  Level Miami Center
01:45PM 26.0281 -80.6214 322° Northwest 133 153 8,000  Level Miami Center
01:45PM 26.0386 -80.6322 317° Northwest 133 153 8,000  Level Miami Center
01:46PM 26.0575 -80.6514 318° Northwest 144 166 8,000  Level Miami Center
01:46PM 26.0692 -80.6608 324° Northwest 140 161 8,000  Level Miami Center
01:47PM 26.0911 -80.6797 322° Northwest 148 170 8,000  Level Miami Center
01:47PM 26.1089 -80.6942 324° Northwest 149 171 8,000  Level Miami Center
01:48PM 26.1392 -80.7289 314° West 154 177 8,000  Level Miami Center
01:49PM 26.1706 -80.7614 317° Northwest 154 177 8,000  Level Miami Center
01:50PM 26.2042 -80.7900 323° Northwest 153 176 8,000  Level Miami Center
01:52PM 26.2414 -80.8253 320° Northwest 152 175 8,000  Level Miami Center
01:53PM 26.2758 -80.8542 323° Northwest 152 175 8,000  Level Miami Center
01:54PM 26.3114 -80.8853 322° Northwest 152 175 8,000  Level Miami Center
01:55PM 26.3447 -80.9131 323° Northwest 151 174 8,000  Level Miami Center
01:56PM 26.3803 -80.9458 320° Northwest 152 175 8,000  Level Miami Center
01:57PM 26.4128 -80.9761 320° Northwest 152 175 8,000  Level Miami Center
01:58PM 26.4475 -81.0031 325° Northwest 153 176 8,000  Level Miami Center
01:59PM 26.4872 -81.0286 330° Northwest 153 176 8,000  Level Miami Center
02:00PM 26.5200 -81.0583 321° Northwest 152 175 8,000  Level Miami Center
02:01PM 26.5564 -81.0883 324° Northwest 153 176 8,000  Level Miami Center
02:02PM 26.5892 -81.1172 322° Northwest 149 171 8,000  Level Miami Center
02:03PM 26.6264 -81.1464 325° Northwest 153 176 8,000  Level Miami Center
02:04PM 26.6639 -81.1717 329° Northwest 148 170 8,000  Level Miami Center
02:05PM 26.6983 -81.1958 328° Northwest 146 168 8,000  Level Miami Center
02:06PM 26.7353 -81.2206 329° Northwest 146 168 8,000  Level Miami Center
02:07PM 26.7689 -81.2464 326° Northwest 146 168 8,000  Level Miami Center
02:08PM 26.8022 -81.2758 322° Northwest 144 166 8,000  Level Miami Center
02:09PM 26.8272 -81.3114 308° West 146 168 8,000  Level Miami Center
02:10PM 26.8547 -81.3494 309° West 146 168 8,000  Level Miami Center
02:11PM 26.8817 -81.3894 307° West 149 171 8,000  Level Miami Center
02:15PM 26.9911 -81.5367 314° West 150 173 8,000  Level Miami Center
02:16PM 27.0192 -81.5711 312° West 151 174 8,000  Level Miami Center
02:17PM 27.0483 -81.6028 316° Northwest 151 174 8,000  Level Miami Center
02:18PM 27.0753 -81.6397 309° West 151 174 8,000  Level Miami Center
02:20PM 27.0726 -81.6786 314° West  Level FlightAware Approximate
02:20PM 27.1039 -81.6753 312° West 152 175 8,000  Level Miami Center
02:21PM 27.0994 -81.7094 314° West  Level FlightAware Approximate
02:21PM 27.1361 -81.7183 310° West 152 175 8,000  Level Miami Center
02:22PM 27.1614 -81.7558 307° West 152 175 8,000  Level Miami Center
02:23PM 27.1883 -81.7939 309° West 154 177 8,000  Level Miami Center
02:24PM 27.2142 -81.8306 308° West 153 176 8,000  Level Miami Center
02:25PM 27.2397 -81.8669 308° West 152 175 8,000  Level Miami Center
02:26PM 27.2658 -81.9036 309° West 150 173 8,000 -300 Level Miami Center
02:27PM 27.2983 -81.9489 309° West 151 174 7,500 -540 Descending Miami Center
02:28PM 27.3303 -81.9894 312° West 171 197 7,000 -480 Descending Miami Center
02:29PM 27.3608 -82.0272 312° West 167 192 6,600 -540 Descending Miami Center
02:30PM 27.3942 -82.0611 318° Northwest 163 188 5,900 -360 Descending Miami Center
02:31PM 27.4225 -82.0992 310° West 159 183 5,900  Level Miami Center
02:32PM 27.4497 -82.1325 313° West 147 169 5,900  Level Miami Center
02:33PM 27.4833 -82.1703 315° West 144 166 5,900  Level Miami Center
02:34PM 27.5189 -82.1889 335° Northwest 140 161 5,900 -300 Level Miami Center
02:35PM 27.5544 -82.2131 329° Northwest 146 168 5,400 -540 Descending Miami Center
02:36PM 27.5908 -82.2414 325° Northwest 156 180 4,800 -600 Descending Miami Center
02:37PM 27.6333 -82.2667 332° Northwest 159 183 4,200 -600 Descending Tampa TRACON
02:38PM 27.6667 -82.2833 336° Northwest 157 181 3,700 -600 Descending Tampa TRACON
02:39PM 27.7000 -82.3167 318° Northwest 158 182 3,200 -480 Descending Tampa TRACON
02:40PM 27.7333 -82.3333 336° Northwest 156 180 2,900 -300 Descending Tampa TRACON
02:41PM 27.7833 -82.3500 344° North 150 173 2,600 -480 Descending Tampa TRACON
02:42PM 27.8167 -82.3833 319° Northwest 153 176 2,000 -660 Descending Tampa TRACON
02:43PM 27.8667 -82.4000 344° North 156 180 1,300 -600 Descending Tampa TRACON
02:44PM 27.9000 -82.4333 319° Northwest 154 177 800 -300 Descending Tampa TRACON
02:45PM 27.9167 -82.4333 360° North 118 136 800 -240 Level Tampa TRACON
02:46PM 27.9333 -82.4333 360° North 98 113 400 -480 Descending Tampa TRACON
02:48PM 27.9154 -82.4494 90° East  Level Estimated
02:55PM 27.9154 -82.4494 90° East  Level Estimated
02:56PM 27.9154 -82.4494 90° East  Level Estimated